createdAt,value
2023-04-22T00:02:49.771Z,100.00
2023-04-22T00:05:51.531Z,100.00
2023-04-22T00:08:53.117Z,100.00
2023-04-22T00:11:54.628Z,100.00
2023-04-22T00:14:56.244Z,100.00
2023-04-22T00:17:58.263Z,100.00
2023-04-22T00:20:59.866Z,100.00
2023-04-22T00:24:01.441Z,100.00
2023-04-22T00:27:02.939Z,100.00
2023-04-22T00:30:05.191Z,100.00
2023-04-22T00:33:06.736Z,100.00
2023-04-22T00:36:08.364Z,100.00
2023-04-22T00:39:09.898Z,100.00
2023-04-22T00:42:11.398Z,100.00
2023-04-22T00:45:15.072Z,100.00
2023-04-22T00:48:16.530Z,100.00
2023-04-22T00:51:18.014Z,100.00
2023-04-22T00:54:19.651Z,100.00
2023-04-22T00:57:21.168Z,100.00
2023-04-22T01:00:27.118Z,100.00
2023-04-22T01:03:30.474Z,100.00
2023-04-22T01:06:32.458Z,100.00
2023-04-22T01:09:33.904Z,100.00
2023-04-22T01:12:35.398Z,100.00
2023-04-22T01:15:37.069Z,100.00
2023-04-22T01:18:38.589Z,100.00
2023-04-22T01:21:40.736Z,100.00
2023-04-22T01:24:42.240Z,100.00
2023-04-22T01:27:44.160Z,100.00
2023-04-22T01:30:45.748Z,100.00
2023-04-22T01:33:48.278Z,100.00
2023-04-22T01:36:50.411Z,100.00
2023-04-22T01:39:51.891Z,100.00
2023-04-22T01:42:53.332Z,100.00
2023-04-22T01:45:54.857Z,100.00
2023-04-22T01:48:56.294Z,100.00
2023-04-22T01:52:01.292Z,100.00
2023-04-22T01:55:02.751Z,100.00
2023-04-22T01:58:04.623Z,100.00
2023-04-22T02:01:06.738Z,100.00
2023-04-22T02:04:08.254Z,100.00
2023-04-22T02:07:09.763Z,100.00
2023-04-22T02:10:11.995Z,100.00
2023-04-22T02:13:13.475Z,100.00
2023-04-22T02:16:15.012Z,100.00
2023-04-22T02:19:16.529Z,100.00
2023-04-22T02:22:18.034Z,100.00
2023-04-22T02:25:19.696Z,100.00
2023-04-22T02:28:21.164Z,100.00
2023-04-22T02:31:22.752Z,100.00
2023-04-22T02:34:24.279Z,100.00
2023-04-22T02:37:25.751Z,100.00
2023-04-22T02:40:27.228Z,100.00
2023-04-22T02:43:29.014Z,100.00
2023-04-22T02:46:30.595Z,100.00
2023-04-22T02:49:32.104Z,100.00
2023-04-22T02:52:33.977Z,100.00
2023-04-22T02:55:35.506Z,100.00
2023-04-22T02:58:36.982Z,100.00
2023-04-22T03:01:38.560Z,100.00
2023-04-22T03:04:40.049Z,100.00
2023-04-22T03:07:41.616Z,100.00
2023-04-22T03:10:43.108Z,100.00
2023-04-22T03:13:44.565Z,100.00
2023-04-22T03:16:46.071Z,100.00
2023-04-22T03:19:47.704Z,100.00
2023-04-22T03:22:49.149Z,100.00
2023-04-22T03:25:50.959Z,100.00
2023-04-22T03:28:52.434Z,100.00
2023-04-22T03:31:53.984Z,100.00
2023-04-22T03:34:55.620Z,100.00
2023-04-22T03:37:57.095Z,100.00
2023-04-22T03:40:58.567Z,100.00
2023-04-22T03:44:01.813Z,100.00
2023-04-22T03:47:03.920Z,100.00
2023-04-22T03:50:06.136Z,100.00
2023-04-22T03:53:07.582Z,100.00
2023-04-22T03:56:09.100Z,100.00
2023-04-22T03:59:10.630Z,100.00
2023-04-22T04:02:12.172Z,100.00
2023-04-22T04:05:13.875Z,100.00
2023-04-22T04:08:15.903Z,100.00
2023-04-22T04:11:17.395Z,100.00
2023-04-22T04:14:18.859Z,100.00
2023-04-22T04:17:20.611Z,100.00
2023-04-22T04:20:22.695Z,100.00
2023-04-22T04:23:24.161Z,100.00
2023-04-22T04:26:27.508Z,100.00
2023-04-22T04:29:29.065Z,100.00
2023-04-22T04:32:34.301Z,100.00
2023-04-22T04:35:37.828Z,100.00
2023-04-22T04:38:39.483Z,100.00
2023-04-22T04:41:41.161Z,100.00
2023-04-22T04:44:42.685Z,100.00
2023-04-22T04:47:45.135Z,100.00
2023-04-22T04:50:47.140Z,100.00
2023-04-22T04:53:48.593Z,100.00
2023-04-22T04:56:50.386Z,100.00
2023-04-22T04:59:51.940Z,100.00
2023-04-22T05:02:53.520Z,100.00
2023-04-22T05:05:55.066Z,100.00
2023-04-22T05:08:56.496Z,100.00
2023-04-22T05:11:57.974Z,100.00
2023-04-22T05:14:59.425Z,100.00
2023-04-22T05:18:00.935Z,100.00
2023-04-22T05:21:04.169Z,100.00
2023-04-22T05:24:05.840Z,100.00
2023-04-22T05:27:07.865Z,100.00
2023-04-22T05:30:09.739Z,100.00
2023-04-22T05:33:11.358Z,100.00
2023-04-22T05:36:12.853Z,100.00
2023-04-22T05:39:14.332Z,100.00
2023-04-22T05:42:15.945Z,100.00
2023-04-22T05:45:17.729Z,100.00
2023-04-22T05:48:19.242Z,100.00
2023-04-22T05:51:20.757Z,100.00
2023-04-22T05:54:22.213Z,100.00
2023-04-22T05:57:23.662Z,100.00
2023-04-22T06:00:25.100Z,100.00
2023-04-22T06:03:26.830Z,100.00
2023-04-22T06:06:28.472Z,100.00
2023-04-22T06:09:29.943Z,100.00
2023-04-22T06:12:32.811Z,100.00
2023-04-22T06:15:34.460Z,100.00
2023-04-22T06:18:37.880Z,100.00
2023-04-22T06:21:40.510Z,100.00
2023-04-22T06:24:41.969Z,100.00
2023-04-22T06:27:43.418Z,100.00
2023-04-22T06:30:44.908Z,100.00
2023-04-22T06:33:46.508Z,100.00
2023-04-22T06:36:47.951Z,100.00
2023-04-22T06:39:49.431Z,100.00
2023-04-22T06:42:50.867Z,100.00
2023-04-22T06:45:52.334Z,100.00
2023-04-22T06:48:53.783Z,100.00
2023-04-22T06:51:55.272Z,100.00
2023-04-22T06:54:56.760Z,100.00
2023-04-22T06:58:00.486Z,100.00
2023-04-22T07:01:01.959Z,100.00
2023-04-22T07:04:03.575Z,100.00
2023-04-22T07:07:05.157Z,100.00
2023-04-22T07:10:06.954Z,100.00
2023-04-22T07:13:08.400Z,100.00
2023-04-22T07:16:09.918Z,100.00
2023-04-22T07:19:11.523Z,100.00
2023-04-22T07:22:12.971Z,100.00
2023-04-22T07:25:14.425Z,100.00
2023-04-22T07:28:16.260Z,100.00
2023-04-22T07:31:17.758Z,100.00
2023-04-22T07:34:19.316Z,100.00
2023-04-22T07:37:21.996Z,100.00
2023-04-22T07:40:23.445Z,100.00
2023-04-22T07:43:24.930Z,100.00
2023-04-22T07:46:26.355Z,100.00
2023-04-22T07:49:27.867Z,100.00
2023-04-22T07:52:30.281Z,100.00
2023-04-22T07:55:31.908Z,100.00
2023-04-22T07:58:33.357Z,100.00
2023-04-22T08:01:34.815Z,100.00
2023-04-22T08:04:37.057Z,100.00
2023-04-22T08:07:38.585Z,100.00
2023-04-22T08:10:40.049Z,100.00
2023-04-22T08:13:41.768Z,100.00
2023-04-22T08:16:43.225Z,100.00
2023-04-22T08:19:45.232Z,100.00
2023-04-22T08:22:47.198Z,100.00
2023-04-22T08:25:48.764Z,100.00
2023-04-22T08:28:50.267Z,100.00
2023-04-22T08:31:51.701Z,92.59
2023-04-22T08:34:54.217Z,80.80
2023-04-22T08:37:59.144Z,75.22
2023-04-22T08:41:00.640Z,76.21
2023-04-22T08:44:02.100Z,65.84
2023-04-22T08:47:03.726Z,62.60
2023-04-22T08:50:06.304Z,68.63
2023-04-22T08:53:07.752Z,52.84
2023-04-22T08:56:09.207Z,59.54
2023-04-22T08:59:13.933Z,48.39
2023-04-22T09:02:21.941Z,45.13
2023-04-22T09:05:23.884Z,44.02
2023-04-22T09:08:26.584Z,46.84
2023-04-22T09:11:28.882Z,44.74
2023-04-22T09:14:30.328Z,45.04
2023-04-22T09:17:35.027Z,43.48
2023-04-22T09:20:36.493Z,44.64
2023-04-22T09:23:48.281Z,43.03
2023-04-22T09:26:49.640Z,44.80
2023-04-22T09:29:51.484Z,44.32
2023-04-22T09:32:54.744Z,44.77
2023-04-22T09:35:56.290Z,42.80
2023-04-22T09:38:58.487Z,41.95
2023-04-22T09:41:59.934Z,42.37
2023-04-22T09:45:02.161Z,39.15
2023-04-22T09:48:08.122Z,41.22
2023-04-22T09:51:19.078Z,39.53
2023-04-22T09:54:20.528Z,38.71
2023-04-22T09:57:22.028Z,38.34
2023-04-22T10:00:25.225Z,38.29
2023-04-22T10:03:26.709Z,36.68
2023-04-22T10:06:28.152Z,38.27
2023-04-22T10:09:29.638Z,40.41
2023-04-22T10:12:35.514Z,40.71
2023-04-22T10:15:42.296Z,40.41
2023-04-22T10:18:43.771Z,41.70
2023-04-22T10:21:46.061Z,40.15
2023-04-22T10:24:47.599Z,42.42
2023-04-22T10:28:03.195Z,43.41
2023-04-22T10:31:21.367Z,41.90
2023-04-22T10:34:22.918Z,42.67
2023-04-22T10:37:24.317Z,43.50
2023-04-22T10:40:25.894Z,44.89
2023-04-22T10:43:45.654Z,43.82
2023-04-22T10:46:50.212Z,42.53
2023-04-22T10:49:51.757Z,41.62
2023-04-22T10:52:59.647Z,42.92
2023-04-22T10:56:03.020Z,40.60
2023-04-22T10:59:17.196Z,40.16
2023-04-22T11:02:19.124Z,40.02
2023-04-22T11:05:22.826Z,41.61
2023-04-22T11:08:25.693Z,42.20
2023-04-22T11:11:27.251Z,42.32
2023-04-22T11:14:28.727Z,43.52
2023-04-22T11:17:34.233Z,42.92
2023-04-22T11:20:40.486Z,43.08
2023-04-22T11:23:52.867Z,43.37
2023-04-22T11:27:11.162Z,45.67
2023-04-22T11:30:17.580Z,43.50
2023-04-22T11:33:19.415Z,43.79
2023-04-22T11:36:22.195Z,43.41
2023-04-22T11:39:34.222Z,44.03
2023-04-22T11:42:36.921Z,41.77
2023-04-22T11:45:38.929Z,41.38
2023-04-22T11:48:42.640Z,43.88
2023-04-22T11:51:57.959Z,45.02
2023-04-22T11:55:04.645Z,43.11
2023-04-22T11:58:09.698Z,44.36
2023-04-22T12:01:15.803Z,45.02
2023-04-22T12:04:17.648Z,44.61
2023-04-22T12:07:19.364Z,44.90
2023-04-22T12:10:23.042Z,48.69
2023-04-22T12:13:32.989Z,47.56
2023-04-22T12:16:41.588Z,46.61
2023-04-22T12:19:49.380Z,46.66
2023-04-22T12:22:53.058Z,45.38
2023-04-22T12:25:56.786Z,45.73
2023-04-22T12:29:02.848Z,41.80
2023-04-22T12:32:04.892Z,42.13
2023-04-22T12:35:08.483Z,38.80
2023-04-22T12:38:12.839Z,38.01
2023-04-22T12:41:15.827Z,40.47
2023-04-22T12:44:17.673Z,42.61
2023-04-22T12:47:20.049Z,45.25
2023-04-22T12:50:21.754Z,45.24
2023-04-22T12:53:23.463Z,44.08
2023-04-22T12:56:27.612Z,45.96
2023-04-22T12:59:29.439Z,44.44
2023-04-22T13:02:31.252Z,48.54
2023-04-22T13:05:33.072Z,48.46
2023-04-22T13:08:36.954Z,49.74
2023-04-22T13:11:41.621Z,47.95
2023-04-22T13:14:43.449Z,45.89
2023-04-22T13:17:47.171Z,44.71
2023-04-22T13:20:52.328Z,46.55
2023-04-22T13:23:54.015Z,48.51
2023-04-22T13:26:56.141Z,48.31
2023-04-22T13:29:57.739Z,52.79
2023-04-22T13:32:59.333Z,50.39
2023-04-22T13:36:02.146Z,52.08
2023-04-22T13:39:06.756Z,52.01
2023-04-22T13:42:10.114Z,51.89
2023-04-22T13:45:25.098Z,53.36
2023-04-22T13:48:29.159Z,54.08
2023-04-22T13:51:32.249Z,51.22
2023-04-22T13:54:33.920Z,52.50
2023-04-22T13:57:35.549Z,54.99
2023-04-22T14:03:55.907Z,53.14
2023-04-22T14:06:58.956Z,52.74
2023-04-22T14:13:26.985Z,52.27
2023-04-22T14:16:31.226Z,53.41
2023-04-22T14:19:38.291Z,50.76
2023-04-22T14:22:50.914Z,49.71
2023-04-22T14:25:52.583Z,47.37
2023-04-22T14:28:54.227Z,49.35
2023-04-22T14:32:21.670Z,46.87
2023-04-22T14:35:23.373Z,50.07
2023-04-22T14:38:25.015Z,47.86
2023-04-22T14:41:26.520Z,49.20
2023-04-22T14:44:28.050Z,51.60
2023-04-22T14:47:30.275Z,52.90
2023-04-22T14:50:31.899Z,53.17
2023-04-22T14:53:34.113Z,52.89
2023-04-22T14:56:36.536Z,52.52
2023-04-22T14:59:38.370Z,54.37
2023-04-22T15:02:40.267Z,53.16
2023-04-22T15:05:42.474Z,56.38
2023-04-22T15:08:44.055Z,59.23
2023-04-22T15:11:48.466Z,58.43
2023-04-22T15:14:50.030Z,56.37
2023-04-22T15:17:51.631Z,57.52
2023-04-22T15:20:53.203Z,57.30
2023-04-22T15:23:54.679Z,57.38
2023-04-22T15:26:56.776Z,57.31
2023-04-22T15:29:58.324Z,58.89
2023-04-22T15:32:59.948Z,58.16
2023-04-22T15:36:04.092Z,60.10
2023-04-22T15:39:05.828Z,62.53
2023-04-22T15:42:07.347Z,63.11
2023-04-22T15:45:18.270Z,60.12
2023-04-22T15:48:20.182Z,58.53
2023-04-22T15:51:24.043Z,59.98
2023-04-22T15:54:25.931Z,62.87
2023-04-22T15:57:34.519Z,64.50
2023-04-22T16:00:48.869Z,65.45
2023-04-22T16:03:57.708Z,65.22
2023-04-22T16:06:59.716Z,68.20
2023-04-22T16:10:10.558Z,72.75
2023-04-22T16:13:12.130Z,76.62
2023-04-22T16:16:27.603Z,81.69
2023-04-22T16:19:36.799Z,88.88
2023-04-22T16:22:49.623Z,89.27
2023-04-22T16:25:51.405Z,91.09
2023-04-22T16:28:58.598Z,94.10
2023-04-22T16:32:00.195Z,100.00
2023-04-22T16:35:01.867Z,100.00
2023-04-22T16:38:07.075Z,100.00
2023-04-22T16:41:38.158Z,100.00
2023-04-22T16:44:54.665Z,100.00
2023-04-22T16:47:59.291Z,100.00
2023-04-22T16:51:04.238Z,100.00
2023-04-22T16:54:08.278Z,100.00
2023-04-22T16:57:12.859Z,100.00
2023-04-22T17:00:28.268Z,100.00
2023-04-22T18:02:25.870Z,100.00
2023-04-22T18:09:37.156Z,100.00
2023-04-22T18:13:26.886Z,100.00
2023-04-22T18:16:51.479Z,100.00
2023-04-22T18:20:16.829Z,100.00
2023-04-22T18:23:22.413Z,100.00
2023-04-22T18:26:26.742Z,100.00
2023-04-22T18:29:28.277Z,100.00
2023-04-22T18:32:36.098Z,100.00
2023-04-22T18:35:43.837Z,100.00
2023-04-22T18:38:49.489Z,100.00
2023-04-22T18:41:57.684Z,100.00
2023-04-22T18:46:07.333Z,100.00
2023-04-22T18:49:27.672Z,100.00
2023-04-22T18:52:44.635Z,100.00
2023-04-22T18:56:24.672Z,100.00
2023-04-22T19:33:31.088Z,100.00
2023-04-22T19:36:40.172Z,100.00
2023-04-22T19:40:01.347Z,100.00
2023-04-22T19:43:27.460Z,100.00
2023-04-22T19:46:41.398Z,100.00
2023-04-22T19:49:54.466Z,100.00
2023-04-22T19:53:39.717Z,100.00
2023-04-22T19:57:16.676Z,100.00
2023-04-22T20:00:55.376Z,100.00
2023-04-22T20:08:50.733Z,100.00
2023-04-22T20:12:35.514Z,100.00
2023-04-22T20:15:41.871Z,100.00
2023-04-22T20:28:05.780Z,100.00
2023-04-22T20:51:51.547Z,100.00
2023-04-22T20:58:16.689Z,100.00
2023-04-22T21:01:37.149Z,100.00
2023-04-22T21:04:39.257Z,100.00
2023-04-22T21:08:21.008Z,100.00
2023-04-22T21:36:58.832Z,100.00
2023-04-22T21:53:57.904Z,100.00
2023-04-22T21:57:23.884Z,100.00
2023-04-22T22:04:53.452Z,100.00
2023-04-22T22:08:00.143Z,100.00
2023-04-22T22:11:27.523Z,100.00
2023-04-22T22:14:57.693Z,100.00
2023-04-22T22:18:07.785Z,100.00
2023-04-22T22:22:03.718Z,100.00
2023-04-22T22:25:07.445Z,100.00
2023-04-22T22:28:09.344Z,100.00
2023-04-22T22:31:10.870Z,100.00
2023-04-22T22:34:25.612Z,100.00
2023-04-22T22:37:27.226Z,100.00
2023-04-22T22:40:39.271Z,100.00
2023-04-22T22:47:40.333Z,100.00
2023-04-22T22:50:48.638Z,100.00
2023-04-22T22:59:49.521Z,100.00
2023-04-22T23:30:46.669Z,100.00
2023-04-22T23:33:52.051Z,100.00
2023-04-22T23:36:53.832Z,100.00
2023-04-22T23:39:55.570Z,100.00
2023-04-22T23:42:57.177Z,100.00
2023-04-22T23:45:58.861Z,100.00
2023-04-22T23:49:01.630Z,100.00
2023-04-22T23:52:03.351Z,100.00
2023-04-22T23:55:39.185Z,100.00
2023-04-22T23:58:51.407Z,100.00
